createdAt,value
2019-02-21T00:01:41.118Z,3.70
2019-02-21T00:04:12.740Z,4.23
2019-02-21T00:06:44.570Z,3.80
2019-02-21T00:09:16.380Z,3.13
2019-02-21T00:11:48.192Z,4.33
2019-02-21T00:14:20.179Z,3.77
2019-02-21T00:16:54.057Z,4.50
2019-02-21T00:19:29.992Z,3.53
2019-02-21T00:22:02.703Z,4.27
2019-02-21T00:24:34.527Z,4.27
2019-02-21T00:27:06.384Z,4.47
2019-02-21T00:29:38.114Z,4.20
2019-02-21T00:32:11.710Z,4.03
2019-02-21T00:34:44.915Z,4.47
2019-02-21T00:37:17.595Z,4.63
2019-02-21T00:39:49.257Z,4.17
2019-02-21T00:42:21.014Z,4.70
2019-02-21T00:44:52.726Z,4.57
2019-02-21T00:47:25.600Z,4.50
2019-02-21T00:49:57.542Z,4.57
2019-02-21T00:52:31.390Z,4.73
2019-02-21T00:55:02.678Z,4.70
2019-02-21T00:57:34.663Z,5.37
2019-02-21T01:00:06.792Z,4.83
2019-02-21T01:02:38.475Z,6.67
2019-02-21T01:05:11.232Z,7.00
2019-02-21T01:07:45.776Z,7.07
2019-02-21T01:10:17.348Z,7.53
2019-02-21T01:12:49.000Z,6.23
2019-02-21T01:15:20.960Z,8.90
2019-02-21T01:17:52.600Z,9.07
2019-02-21T01:20:24.194Z,9.77
2019-02-21T01:22:55.904Z,10.40
2019-02-21T01:25:27.564Z,10.10
2019-02-21T01:27:59.266Z,11.23
2019-02-21T01:30:30.805Z,11.77
2019-02-21T01:33:03.425Z,11.37
2019-02-21T01:35:36.112Z,11.43
2019-02-21T01:38:07.796Z,11.57
2019-02-21T01:40:39.506Z,12.27
2019-02-21T01:43:11.138Z,12.53
2019-02-21T01:45:42.771Z,12.80
2019-02-21T01:48:14.398Z,12.73
2019-02-21T01:50:46.554Z,12.43
2019-02-21T01:53:19.928Z,12.47
2019-02-21T01:55:51.803Z,12.77
2019-02-21T01:58:24.047Z,12.93
2019-02-21T02:00:55.786Z,13.37
2019-02-21T02:03:27.630Z,11.33
2019-02-21T02:05:59.528Z,13.03
2019-02-21T02:08:30.832Z,14.63
2019-02-21T02:11:02.444Z,14.27
2019-02-21T02:13:34.567Z,13.00
2019-02-21T02:16:06.609Z,14.53
2019-02-21T02:18:38.469Z,13.83
2019-02-21T02:21:10.946Z,14.40
2019-02-21T02:23:44.675Z,14.43
2019-02-21T02:26:17.458Z,13.13
2019-02-21T02:28:50.168Z,13.80
2019-02-21T02:31:23.833Z,13.83
2019-02-21T02:33:55.696Z,12.97
2019-02-21T02:36:27.439Z,13.53
2019-02-21T02:38:59.313Z,13.60
2019-02-21T02:41:31.084Z,13.87
2019-02-21T02:44:02.944Z,13.10
2019-02-21T02:46:34.546Z,13.90
2019-02-21T02:49:06.412Z,14.67
2019-02-21T02:51:39.068Z,12.80
2019-02-21T02:54:10.743Z,13.03
2019-02-21T02:56:42.399Z,12.50
2019-02-21T02:59:18.536Z,14.30
2019-02-21T03:01:50.234Z,14.80
2019-02-21T03:04:21.994Z,14.67
2019-02-21T03:06:53.784Z,17.20
2019-02-21T03:09:26.748Z,17.33
2019-02-21T03:12:00.738Z,16.00
2019-02-21T03:14:32.865Z,15.80
2019-02-21T03:17:04.781Z,18.47
2019-02-21T03:19:36.435Z,17.93
2019-02-21T03:22:08.378Z,17.73
2019-02-21T03:24:41.238Z,18.00
2019-02-21T03:27:12.898Z,19.43
2019-02-21T03:29:44.703Z,18.63
2019-02-21T03:32:17.620Z,18.70
2019-02-21T03:34:49.364Z,19.43
2019-02-21T03:37:21.312Z,19.23
2019-02-21T03:39:52.986Z,18.43
2019-02-21T03:42:24.674Z,18.30
2019-02-21T03:44:56.290Z,17.53
2019-02-21T03:47:27.761Z,18.80
2019-02-21T03:49:58.664Z,20.10
2019-02-21T03:52:29.920Z,19.40
2019-02-21T03:55:01.613Z,18.90
2019-02-21T03:57:33.220Z,19.57
2019-02-21T04:00:05.336Z,19.20
2019-02-21T04:02:36.977Z,21.47
2019-02-21T04:05:08.610Z,19.37
2019-02-21T04:07:40.620Z,16.60
2019-02-21T04:10:12.298Z,18.87
2019-02-21T04:12:43.958Z,19.10
2019-02-21T04:15:15.580Z,18.27
2019-02-21T04:17:47.530Z,19.40
2019-02-21T04:20:19.586Z,19.60
2019-02-21T04:22:50.742Z,18.03
2019-02-21T04:25:24.439Z,19.17
2019-02-21T04:27:56.296Z,21.50
2019-02-21T04:30:29.671Z,19.93
2019-02-21T04:33:02.530Z,20.17
2019-02-21T04:35:34.460Z,20.33
2019-02-21T04:38:06.044Z,21.87
2019-02-21T04:40:37.751Z,21.93
2019-02-21T04:43:09.450Z,21.93
2019-02-21T04:45:42.947Z,23.47
2019-02-21T04:48:14.743Z,22.57
2019-02-21T04:50:46.371Z,24.13
2019-02-21T04:53:17.924Z,24.10
2019-02-21T04:56:05.815Z,24.57
2019-02-21T04:58:37.458Z,24.20
2019-02-21T05:01:09.047Z,24.30
2019-02-21T05:03:40.904Z,23.53
2019-02-21T05:06:13.016Z,25.57
2019-02-21T05:08:46.137Z,24.33
2019-02-21T05:11:18.409Z,24.60
2019-02-21T05:13:51.991Z,26.20
2019-02-21T05:16:23.766Z,28.93
2019-02-21T05:18:56.547Z,28.47
2019-02-21T05:21:28.624Z,29.47
2019-02-21T05:24:00.371Z,32.97
2019-02-21T05:26:46.822Z,30.37
2019-02-21T05:29:18.605Z,32.03
2019-02-21T05:32:10.837Z,31.80
2019-02-21T05:34:51.205Z,31.33
2019-02-21T05:37:36.334Z,31.60
2019-02-21T05:40:37.368Z,34.10
2019-02-21T05:43:30.873Z,31.57
2019-02-21T05:46:31.744Z,36.17
2019-02-21T05:49:36.570Z,33.13
2019-02-21T05:52:27.436Z,34.63
2019-02-21T05:55:15.202Z,30.33
2019-02-21T05:58:14.074Z,36.97
2019-02-21T06:01:00.245Z,32.10
2019-02-21T06:03:52.710Z,32.67
2019-02-21T06:06:48.534Z,35.87
2019-02-21T06:09:30.303Z,34.63
2019-02-21T06:12:33.727Z,35.93
2019-02-21T06:15:11.119Z,33.27
2019-02-21T06:18:12.670Z,35.63
2019-02-21T06:21:08.486Z,35.40
2019-02-21T06:24:00.418Z,33.23
2019-02-21T06:26:39.579Z,36.17
2019-02-21T06:29:24.102Z,35.80
2019-02-21T06:31:55.950Z,38.97
2019-02-21T06:34:27.851Z,36.53
2019-02-21T06:36:59.764Z,37.00
2019-02-21T06:39:35.940Z,36.47
2019-02-21T06:42:16.174Z,37.87
2019-02-21T06:44:41.050Z,34.57
2019-02-21T06:47:13.064Z,37.00
2019-02-21T06:49:46.954Z,37.87
2019-02-21T06:52:18.700Z,39.63
2019-02-21T06:54:50.800Z,30.47
2019-02-21T06:57:22.524Z,39.80
2019-02-21T06:59:54.322Z,42.00
2019-02-21T07:02:28.213Z,39.37
2019-02-21T07:05:00.544Z,42.27
2019-02-21T07:07:32.120Z,38.33
2019-02-21T07:10:03.844Z,39.00
2019-02-21T07:12:35.641Z,38.00
2019-02-21T07:15:09.137Z,36.53
2019-02-21T07:17:48.871Z,38.17
2019-02-21T07:20:19.960Z,37.30
2019-02-21T07:22:51.760Z,37.80
2019-02-21T07:25:42.458Z,39.70
2019-02-21T07:28:16.355Z,37.50
2019-02-21T07:30:48.892Z,40.33
2019-02-21T07:33:28.513Z,37.70
2019-02-21T07:35:54.066Z,45.13
2019-02-21T07:38:27.524Z,32.10
2019-02-21T07:41:00.450Z,35.90
2019-02-21T07:43:32.298Z,37.90
2019-02-21T07:46:06.774Z,38.23
2019-02-21T07:48:38.284Z,39.27
2019-02-21T07:51:10.027Z,38.07
2019-02-21T07:53:41.980Z,39.20
2019-02-21T07:56:15.648Z,33.33
2019-02-21T07:58:47.812Z,33.93
2019-02-21T08:01:20.118Z,35.60
2019-02-21T08:03:54.044Z,41.53
2019-02-21T08:06:26.010Z,37.33
2019-02-21T08:08:58.044Z,39.47
2019-02-21T08:11:29.908Z,37.93
2019-02-21T08:14:02.952Z,37.73
2019-02-21T08:16:35.116Z,37.63
2019-02-21T08:19:07.408Z,37.93
2019-02-21T08:21:43.529Z,37.33
2019-02-21T08:24:16.986Z,33.83
2019-02-21T08:26:48.962Z,34.57
2019-02-21T08:29:22.956Z,35.33
2019-02-21T08:31:56.283Z,36.67
2019-02-21T08:34:40.354Z,35.73
2019-02-21T08:37:14.616Z,34.33
2019-02-21T08:39:46.299Z,31.33
2019-02-21T08:42:17.986Z,32.13
2019-02-21T08:44:50.215Z,33.30
2019-02-21T08:47:21.900Z,33.93
2019-02-21T08:49:59.755Z,33.77
2019-02-21T08:52:31.728Z,33.40
2019-02-21T08:55:04.655Z,30.03
2019-02-21T08:57:36.655Z,34.63
2019-02-21T09:00:10.978Z,36.23
2019-02-21T09:02:43.116Z,31.77
2019-02-21T09:05:15.404Z,33.37
2019-02-21T09:07:47.332Z,33.37
2019-02-21T09:10:19.117Z,37.43
2019-02-21T09:12:51.324Z,35.10
2019-02-21T09:15:25.705Z,37.57
2019-02-21T09:17:59.640Z,34.93
2019-02-21T09:20:31.422Z,37.50
2019-02-21T09:23:03.090Z,36.70
2019-02-21T09:25:36.475Z,35.47
2019-02-21T09:28:08.376Z,35.10
2019-02-21T09:30:40.387Z,41.67
2019-02-21T09:33:17.488Z,38.10
2019-02-21T09:35:48.105Z,37.23
2019-02-21T09:38:20.097Z,38.80
2019-02-21T09:40:51.912Z,37.67
2019-02-21T09:43:25.856Z,40.37
2019-02-21T09:45:59.538Z,43.33
2019-02-21T09:48:31.456Z,42.57
2019-02-21T09:51:03.794Z,39.83
2019-02-21T09:53:35.918Z,44.33
2019-02-21T09:56:07.723Z,41.53
2019-02-21T09:58:39.566Z,42.67
2019-02-21T10:01:11.256Z,43.87
2019-02-21T10:03:44.267Z,47.23
2019-02-21T10:06:19.188Z,44.77
2019-02-21T10:08:51.072Z,40.47
2019-02-21T10:11:22.979Z,44.20
2019-02-21T10:13:54.462Z,49.80
2019-02-21T10:16:26.509Z,43.63
2019-02-21T10:18:58.508Z,45.33
2019-02-21T10:21:30.504Z,44.50
2019-02-21T10:24:03.774Z,44.40
2019-02-21T10:26:39.132Z,42.33
2019-02-21T10:29:10.818Z,43.20
2019-02-21T10:31:42.645Z,45.20
2019-02-21T10:34:15.274Z,44.07
2019-02-21T10:36:47.500Z,46.80
2019-02-21T10:39:20.578Z,44.23
2019-02-21T10:41:53.214Z,47.33
2019-02-21T10:44:25.762Z,46.03
2019-02-21T10:46:57.580Z,45.50
2019-02-21T10:49:30.174Z,42.63
2019-02-21T10:52:03.283Z,45.03
2019-02-21T10:54:35.488Z,38.43
2019-02-21T10:57:07.722Z,35.87
2019-02-21T10:59:46.762Z,39.80
2019-02-21T11:02:17.461Z,38.30
2019-02-21T11:04:54.833Z,39.30
2019-02-21T11:07:23.998Z,38.00
2019-02-21T11:09:55.978Z,41.60
2019-02-21T11:12:29.198Z,38.63
2019-02-21T11:15:10.948Z,37.40
2019-02-21T11:17:50.709Z,33.50
2019-02-21T11:20:22.604Z,23.27
2019-02-21T11:22:54.448Z,38.70
2019-02-21T11:25:27.272Z,37.40
2019-02-21T11:27:59.620Z,36.90
2019-02-21T11:30:32.168Z,37.07
2019-02-21T11:33:04.092Z,65.93
2019-02-21T11:35:39.319Z,38.87
2019-02-21T11:38:09.497Z,31.43
2019-02-21T11:40:41.504Z,35.50
2019-02-21T11:43:13.581Z,35.17
2019-02-21T11:45:53.418Z,31.83
2019-02-21T11:48:22.975Z,37.63
2019-02-21T11:50:55.322Z,37.87
2019-02-21T11:53:27.242Z,38.63
2019-02-21T11:55:59.190Z,37.97
2019-02-21T11:58:31.066Z,37.03
2019-02-21T12:01:05.361Z,36.13
2019-02-21T12:03:51.544Z,39.93
2019-02-21T12:06:24.219Z,35.50
2019-02-21T12:09:05.088Z,34.97
2019-02-21T12:11:37.672Z,31.50
2019-02-21T12:14:09.874Z,29.60
2019-02-21T12:16:42.571Z,33.87
2019-02-21T12:19:14.370Z,34.33
2019-02-21T12:21:56.259Z,124.30
2019-02-21T12:24:20.250Z,30.40
2019-02-21T12:26:52.830Z,30.40
2019-02-21T12:29:25.259Z,30.73
2019-02-21T12:31:57.648Z,27.43
2019-02-21T12:34:29.468Z,30.37
2019-02-21T12:37:01.451Z,28.63
2019-02-21T12:39:35.606Z,29.17
2019-02-21T12:42:07.888Z,29.27
2019-02-21T12:44:48.590Z,29.87
2019-02-21T12:47:21.633Z,26.60
2019-02-21T12:49:57.666Z,28.50
2019-02-21T12:52:29.848Z,28.07
2019-02-21T12:55:01.664Z,24.20
2019-02-21T12:57:33.526Z,28.27
2019-02-21T13:00:08.198Z,26.40
2019-02-21T13:02:48.356Z,27.37
2019-02-21T13:05:20.408Z,21.87
2019-02-21T13:07:53.465Z,20.60
2019-02-21T13:10:25.656Z,23.67
2019-02-21T13:12:57.696Z,23.60
2019-02-21T13:15:30.904Z,24.43
2019-02-21T13:18:02.620Z,25.30
2019-02-21T13:20:34.800Z,25.67
2019-02-21T13:23:07.332Z,27.10
2019-02-21T13:25:39.062Z,25.00
2019-02-21T13:28:11.644Z,23.10
2019-02-21T13:30:43.786Z,23.43
2019-02-21T13:33:16.184Z,21.63
2019-02-21T13:35:52.736Z,23.87
2019-02-21T13:38:22.262Z,22.63
2019-02-21T13:40:54.090Z,23.30
2019-02-21T13:43:26.030Z,22.93
2019-02-21T13:45:57.772Z,21.00
2019-02-21T13:48:29.570Z,11.53
2019-02-21T13:51:01.759Z,21.77
2019-02-21T13:53:33.513Z,22.63
2019-02-21T13:56:05.405Z,18.00
2019-02-21T13:58:37.324Z,20.23
2019-02-21T14:01:09.672Z,23.63
2019-02-21T14:03:41.923Z,21.43
2019-02-21T14:06:13.814Z,20.07
2019-02-21T14:08:46.028Z,18.93
2019-02-21T14:11:18.023Z,14.07
2019-02-21T14:13:49.878Z,17.43
2019-02-21T14:16:22.222Z,14.00
2019-02-21T14:18:53.995Z,14.03
2019-02-21T14:21:26.006Z,15.37
2019-02-21T14:23:58.254Z,14.87
2019-02-21T14:26:30.183Z,15.67
2019-02-21T14:29:02.391Z,16.00
2019-02-21T14:31:34.877Z,15.47
2019-02-21T14:34:07.018Z,27.10
2019-02-21T14:36:39.074Z,20.60
2019-02-21T14:39:11.396Z,19.57
2019-02-21T14:41:44.034Z,21.87
2019-02-21T14:44:16.668Z,17.53
2019-02-21T14:46:50.237Z,18.77
2019-02-21T14:49:22.832Z,21.00
2019-02-21T14:51:54.678Z,18.40
2019-02-21T14:54:29.592Z,17.43
2019-02-21T14:57:01.328Z,10.30
2019-02-21T14:59:33.505Z,18.87
2019-02-21T15:02:06.222Z,19.17
2019-02-21T15:04:41.078Z,19.10
2019-02-21T15:07:13.130Z,19.47
2019-02-21T15:09:45.714Z,20.17
2019-02-21T15:12:17.790Z,20.07
2019-02-21T15:14:50.028Z,18.37
2019-02-21T15:17:22.223Z,20.73
2019-02-21T15:19:54.498Z,20.33
2019-02-21T15:22:27.118Z,17.47
2019-02-21T15:24:58.789Z,16.83
2019-02-21T15:27:32.434Z,15.83
2019-02-21T15:30:07.228Z,17.40
2019-02-21T15:32:39.044Z,18.30
2019-02-21T15:35:10.763Z,18.07
2019-02-21T15:37:44.821Z,19.13
2019-02-21T15:40:18.291Z,19.90
2019-02-21T15:42:52.596Z,18.93
2019-02-21T15:45:24.439Z,21.57
2019-02-21T15:47:56.955Z,22.63
2019-02-21T15:50:28.809Z,23.93
2019-02-21T15:53:00.596Z,21.97
2019-02-21T15:55:32.465Z,24.30
2019-02-21T15:58:04.809Z,25.13
2019-02-21T16:00:36.969Z,24.20
2019-02-21T16:03:09.129Z,26.53
2019-02-21T16:05:54.972Z,26.07
2019-02-21T16:08:26.926Z,29.47
2019-02-21T16:10:59.156Z,28.10
2019-02-21T16:13:31.407Z,30.87
2019-02-21T16:16:03.711Z,27.37
2019-02-21T16:18:36.117Z,28.97
2019-02-21T16:21:11.402Z,19.13
2019-02-21T16:23:43.237Z,18.30
2019-02-21T16:26:15.293Z,17.00
2019-02-21T16:28:48.754Z,16.40
2019-02-21T16:31:23.333Z,10.40
2019-02-21T16:33:58.276Z,11.80
2019-02-21T16:36:36.740Z,13.87
2019-02-21T16:39:09.106Z,13.30
2019-02-21T16:41:41.215Z,14.07
2019-02-21T16:44:19.377Z,12.40
2019-02-21T16:46:53.066Z,9.23
2019-02-21T16:49:25.054Z,13.30
2019-02-21T16:51:59.137Z,11.90
2019-02-21T16:54:32.148Z,12.93
2019-02-21T16:57:03.792Z,7.53
2019-02-21T16:59:36.081Z,8.70
2019-02-21T17:02:08.138Z,12.27
2019-02-21T17:04:40.096Z,11.27
2019-02-21T17:07:16.146Z,13.23
2019-02-21T17:09:50.363Z,12.70
2019-02-21T17:12:22.830Z,12.17
2019-02-21T17:14:54.814Z,10.83
2019-02-21T17:17:27.324Z,11.60
2019-02-21T17:20:01.885Z,11.47
2019-02-21T17:22:36.695Z,11.27
2019-02-21T17:25:11.725Z,11.17
2019-02-21T17:27:44.545Z,11.73
2019-02-21T17:30:17.816Z,13.20
2019-02-21T17:32:50.362Z,13.90
2019-02-21T17:35:23.354Z,12.17
2019-02-21T17:37:57.250Z,13.07
2019-02-21T17:40:29.750Z,12.53
2019-02-21T17:43:01.762Z,14.83
2019-02-21T17:45:33.695Z,14.70
2019-02-21T17:48:06.294Z,16.33
2019-02-21T17:50:38.682Z,16.13
2019-02-21T17:53:10.781Z,16.67
2019-02-21T17:55:45.733Z,17.17
2019-02-21T17:58:18.236Z,19.37
2019-02-21T18:00:52.342Z,19.53
2019-02-21T18:03:27.354Z,19.70
2019-02-21T18:06:04.662Z,19.87
2019-02-21T18:08:37.612Z,19.17
2019-02-21T18:11:12.485Z,20.57
2019-02-21T18:13:44.646Z,19.80
2019-02-21T18:16:18.826Z,24.07
2019-02-21T18:18:50.898Z,20.57
2019-02-21T18:21:25.299Z,22.73
2019-02-21T18:23:57.266Z,22.03
2019-02-21T18:26:31.913Z,20.67
2019-02-21T18:29:04.108Z,22.73
2019-02-21T18:31:35.816Z,23.03
2019-02-21T18:34:07.890Z,24.60
2019-02-21T18:36:40.146Z,24.23
2019-02-21T18:39:11.856Z,24.47
2019-02-21T18:41:44.157Z,25.33
2019-02-21T18:44:19.766Z,24.30
2019-02-21T18:46:54.004Z,24.77
2019-02-21T18:49:25.827Z,25.43
2019-02-21T18:51:57.414Z,25.90
2019-02-21T18:54:29.024Z,27.57
2019-02-21T18:57:01.453Z,25.07
2019-02-21T18:59:36.380Z,25.77
2019-02-21T19:02:12.397Z,25.60
2019-02-21T19:04:44.589Z,27.03
2019-02-21T19:07:16.866Z,27.90
2019-02-21T19:09:48.647Z,42.00
2019-02-21T19:12:20.480Z,26.53
2019-02-21T19:14:52.504Z,27.07
2019-02-21T19:17:24.756Z,24.40
2019-02-21T19:19:56.793Z,20.90
2019-02-21T19:22:30.238Z,22.20
2019-02-21T19:25:05.277Z,21.47
2019-02-21T19:27:37.772Z,21.87
2019-02-21T19:30:13.302Z,20.23
2019-02-21T19:32:46.018Z,19.97
2019-02-21T19:35:17.973Z,19.67
2019-02-21T19:37:49.702Z,21.17
2019-02-21T19:40:21.624Z,23.60
2019-02-21T19:42:53.860Z,21.13
2019-02-21T19:45:28.510Z,23.47
2019-02-21T19:47:59.829Z,19.70
2019-02-21T19:50:31.552Z,20.17
2019-02-21T19:53:03.352Z,17.87
2019-02-21T19:55:35.015Z,19.93
2019-02-21T19:58:06.928Z,24.27
2019-02-21T20:00:40.920Z,17.83
2019-02-21T20:03:12.382Z,26.50
2019-02-21T20:05:46.005Z,27.07
2019-02-21T20:08:21.766Z,26.07
2019-02-21T20:10:56.654Z,19.40
2019-02-21T20:13:29.664Z,23.33
2019-02-21T20:16:02.807Z,14.67
2019-02-21T20:18:35.272Z,17.13
2019-02-21T20:21:10.490Z,16.80
2019-02-21T20:23:44.392Z,19.17
2019-02-21T20:26:19.793Z,13.80
2019-02-21T20:28:55.184Z,18.33
2019-02-21T20:31:28.905Z,18.30
2019-02-21T20:34:01.224Z,11.63
2019-02-21T20:36:33.254Z,10.30
2019-02-21T20:39:06.055Z,8.30
2019-02-21T20:41:38.010Z,19.70
2019-02-21T20:44:09.662Z,11.10
2019-02-21T20:46:42.200Z,15.73
2019-02-21T20:49:16.010Z,13.97
2019-02-21T20:51:49.841Z,5.13
2019-02-21T20:54:22.194Z,7.97
2019-02-21T20:56:54.436Z,10.37
2019-02-21T20:59:28.798Z,12.10
2019-02-21T21:02:00.760Z,9.60
2019-02-21T21:04:33.004Z,8.53
2019-02-21T21:07:05.710Z,7.87
2019-02-21T21:09:39.712Z,7.53
2019-02-21T21:12:12.896Z,4.97
2019-02-21T21:14:44.688Z,9.27
2019-02-21T21:17:18.996Z,5.37
2019-02-21T21:19:51.227Z,6.33
2019-02-21T21:22:23.896Z,8.63
2019-02-21T21:24:57.019Z,5.23
2019-02-21T21:27:30.853Z,9.80
2019-02-21T21:30:02.854Z,7.67
2019-02-21T21:32:34.828Z,5.03
2019-02-21T21:35:06.768Z,6.90
2019-02-21T21:37:38.686Z,7.33
2019-02-21T21:40:12.614Z,8.97
2019-02-21T21:42:44.604Z,2.93
2019-02-21T21:45:17.645Z,5.27
2019-02-21T21:47:51.644Z,4.70
2019-02-21T21:50:25.526Z,3.27
2019-02-21T21:52:59.186Z,3.50
2019-02-21T21:55:30.812Z,5.13
2019-02-21T21:58:02.714Z,4.63
2019-02-21T22:00:34.548Z,5.60
2019-02-21T22:03:06.166Z,3.90
2019-02-21T22:05:37.982Z,4.80
2019-02-21T22:08:11.665Z,4.73
2019-02-21T22:10:43.718Z,3.83
2019-02-21T22:13:15.707Z,5.17
2019-02-21T22:15:50.029Z,5.97
2019-02-21T22:18:21.730Z,3.20
2019-02-21T22:20:54.344Z,3.03
2019-02-21T22:23:26.030Z,4.17
2019-02-21T22:25:58.742Z,3.63
2019-02-21T22:28:30.486Z,4.17
2019-02-21T22:31:10.103Z,3.30
2019-02-21T22:33:40.307Z,4.50
2019-02-21T22:36:12.635Z,3.10
2019-02-21T22:38:44.581Z,4.60
2019-02-21T22:41:16.409Z,3.70
2019-02-21T22:43:48.300Z,3.60
2019-02-21T22:46:20.690Z,4.30
2019-02-21T22:48:52.826Z,6.27
2019-02-21T22:51:24.654Z,2.60
2019-02-21T22:53:56.432Z,5.43
2019-02-21T22:56:32.072Z,6.37
2019-02-21T22:59:06.310Z,4.53
2019-02-21T23:01:45.261Z,3.97
2019-02-21T23:04:40.522Z,3.30
2019-02-21T23:07:44.302Z,2.57
2019-02-21T23:10:16.600Z,1.63
2019-02-21T23:12:48.352Z,1.53
2019-02-21T23:15:20.054Z,1.93
2019-02-21T23:17:51.742Z,1.13
2019-02-21T23:20:24.487Z,2.03
2019-02-21T23:22:57.486Z,2.30
2019-02-21T23:25:29.334Z,1.83
2019-02-21T23:28:01.134Z,1.47
2019-02-21T23:30:35.171Z,2.47
2019-02-21T23:33:07.064Z,2.20
2019-02-21T23:35:41.336Z,1.50
2019-02-21T23:38:13.160Z,2.97
2019-02-21T23:40:45.622Z,1.63
2019-02-21T23:43:18.713Z,2.83
2019-02-21T23:45:50.598Z,1.70
2019-02-21T23:48:23.084Z,1.93
2019-02-21T23:50:54.894Z,2.73
2019-02-21T23:53:31.408Z,1.83
2019-02-21T23:56:05.072Z,1.83
2019-02-21T23:58:36.503Z,1.17
